KBLU/BLU METAR and TAF weather

Enter ICAO airport designator
Station Type Date Time Source
KBLU METAR 2019/06/18 16:52 UTC NOAA

KBLU 181652Z AUTO 00000KT 10SM CLR 25/04 A3021 RMK AO2 SLP118 T02500039


Station Type Date Time Source
KBLU Decoded METAR 2019/06/18 16:52 UTC NOAA

BLUE CANYON AIRPORT, CA, United States (KBLU) 39-17N 120-42W 1609M
Jun 18, 2019 - 12:52 PM EDT / 2019.06.18 1652 UTC
Wind: Calm:0
Visibility: 10 mile(s):0
Sky conditions: clear
Temperature: 77.0 F (25.0 C)
Dew Point: 39.0 F (3.9 C)
Relative Humidity: 25%
Pressure (altimeter): 30.21 in. Hg (1023 hPa)
ob: KBLU 181652Z AUTO 00000KT 10SM CLR 25/04 A3021 RMK AO2 SLP118 T02500039
cycle: 17

Station Type Date Time Source
KBLU TAF UTC NOAA

Error!

Example: see airport list